sensor_id;sensor_type;location;lat;lon;timestamp;pressure;altitude;pressure_sealevel;temperature;humidity
64967;BME280;51710;38.732;-121.358;2023-04-22T00:00:50;101466.72;;;27.95;33.20
64967;BME280;51710;38.732;-121.358;2023-04-22T00:03:16;101471.63;;;27.93;33.54
64967;BME280;51710;38.732;-121.358;2023-04-22T00:05:42;101481.78;;;27.93;33.94
64967;BME280;51710;38.732;-121.358;2023-04-22T00:08:09;101471.25;;;27.90;33.64
64967;BME280;51710;38.732;-121.358;2023-04-22T00:10:35;101474.25;;;27.88;33.57
64967;BME280;51710;38.732;-121.358;2023-04-22T00:13:02;101472.09;;;27.90;33.97
64967;BME280;51710;38.732;-121.358;2023-04-22T00:15:29;101471.06;;;27.91;34.77
64967;BME280;51710;38.732;-121.358;2023-04-22T00:17:57;101465.06;;;27.94;33.50
64967;BME280;51710;38.732;-121.358;2023-04-22T00:20:23;101461.75;;;27.92;32.85
64967;BME280;51710;38.732;-121.358;2023-04-22T00:22:50;101452.34;;;27.88;32.53
64967;BME280;51710;38.732;-121.358;2023-04-22T00:25:18;101448.47;;;27.84;33.31
64967;BME280;51710;38.732;-121.358;2023-04-22T00:27:44;101447.38;;;27.85;32.78
64967;BME280;51710;38.732;-121.358;2023-04-22T00:30:11;101448.75;;;27.83;33.19
64967;BME280;51710;38.732;-121.358;2023-04-22T00:32:37;101440.25;;;27.84;32.17
64967;BME280;51710;38.732;-121.358;2023-04-22T00:35:04;101440.75;;;27.81;32.02
64967;BME280;51710;38.732;-121.358;2023-04-22T00:37:30;101442.94;;;27.79;32.74
64967;BME280;51710;38.732;-121.358;2023-04-22T00:39:56;101439.63;;;27.77;32.52
64967;BME280;51710;38.732;-121.358;2023-04-22T00:42:23;101432.97;;;27.73;33.06
64967;BME280;51710;38.732;-121.358;2023-04-22T00:44:51;101433.50;;;27.70;32.42
64967;BME280;51710;38.732;-121.358;2023-04-22T00:47:18;101429.66;;;27.71;32.02
64967;BME280;51710;38.732;-121.358;2023-04-22T00:49:44;101430.16;;;27.68;32.68
64967;BME280;51710;38.732;-121.358;2023-04-22T00:52:11;101431.75;;;27.64;32.98
64967;BME280;51710;38.732;-121.358;2023-04-22T00:54:37;101427.84;;;27.60;33.72
64967;BME280;51710;38.732;-121.358;2023-04-22T00:57:04;101430.03;;;27.58;34.04
64967;BME280;51710;38.732;-121.358;2023-04-22T00:59:31;101437.66;;;27.56;34.12
64967;BME280;51710;38.732;-121.358;2023-04-22T01:01:57;101425.56;;;27.52;34.04
64967;BME280;51710;38.732;-121.358;2023-04-22T01:04:24;101424.38;;;27.48;34.20
64967;BME280;51710;38.732;-121.358;2023-04-22T01:06:51;101424.56;;;27.41;33.75
64967;BME280;51710;38.732;-121.358;2023-04-22T01:09:19;101430.81;;;27.37;34.31
64967;BME280;51710;38.732;-121.358;2023-04-22T01:11:48;101423.06;;;27.34;34.17
64967;BME280;51710;38.732;-121.358;2023-04-22T01:14:14;101416.47;;;27.30;34.49
64967;BME280;51710;38.732;-121.358;2023-04-22T01:16:41;101424.56;;;27.25;34.91
64967;BME280;51710;38.732;-121.358;2023-04-22T01:19:09;101420.34;;;27.17;34.73
64967;BME280;51710;38.732;-121.358;2023-04-22T01:21:36;101413.13;;;27.11;34.61
64967;BME280;51710;38.732;-121.358;2023-04-22T01:24:04;101416.59;;;27.07;34.55
64967;BME280;51710;38.732;-121.358;2023-04-22T01:26:30;101411.91;;;27.02;34.89
64967;BME280;51710;38.732;-121.358;2023-04-22T01:28:57;101418.59;;;26.95;34.79
64967;BME280;51710;38.732;-121.358;2023-04-22T01:31:23;101416.63;;;26.90;34.96
64967;BME280;51710;38.732;-121.358;2023-04-22T01:33:50;101411.63;;;26.87;34.84
64967;BME280;51710;38.732;-121.358;2023-04-22T01:36:16;101415.69;;;26.85;34.36
64967;BME280;51710;38.732;-121.358;2023-04-22T01:38:43;101407.97;;;26.82;34.53
64967;BME280;51710;38.732;-121.358;2023-04-22T01:41:09;101412.19;;;26.73;34.16
64967;BME280;51710;38.732;-121.358;2023-04-22T01:43:36;101399.13;;;26.63;34.30
64967;BME280;51710;38.732;-121.358;2023-04-22T01:46:03;101400.94;;;26.57;34.40
64967;BME280;51710;38.732;-121.358;2023-04-22T01:48:31;101411.19;;;26.50;34.81
64967;BME280;51710;38.732;-121.358;2023-04-22T01:50:57;101410.66;;;26.37;35.51
64967;BME280;51710;38.732;-121.358;2023-04-22T01:53:23;101409.88;;;26.25;35.32
64967;BME280;51710;38.732;-121.358;2023-04-22T01:55:50;101406.13;;;26.14;35.29
64967;BME280;51710;38.732;-121.358;2023-04-22T01:58:16;101406.72;;;26.05;34.89
64967;BME280;51710;38.732;-121.358;2023-04-22T02:00:44;101401.38;;;25.98;35.07
64967;BME280;51710;38.732;-121.358;2023-04-22T02:03:10;101404.59;;;25.95;35.11
64967;BME280;51710;38.732;-121.358;2023-04-22T02:05:37;101405.69;;;25.94;34.70
64967;BME280;51710;38.732;-121.358;2023-04-22T02:08:03;101401.78;;;25.90;34.79
64967;BME280;51710;38.732;-121.358;2023-04-22T02:10:30;101404.41;;;25.85;34.88
64967;BME280;51710;38.732;-121.358;2023-04-22T02:12:56;101401.78;;;25.79;35.08
64967;BME280;51710;38.732;-121.358;2023-04-22T02:15:23;101398.13;;;25.73;35.64
64967;BME280;51710;38.732;-121.358;2023-04-22T02:17:49;101396.34;;;25.67;35.77
64967;BME280;51710;38.732;-121.358;2023-04-22T02:20:15;101392.91;;;25.60;36.04
64967;BME280;51710;38.732;-121.358;2023-04-22T02:22:42;101394.09;;;25.52;36.15
64967;BME280;51710;38.732;-121.358;2023-04-22T02:25:09;101394.72;;;25.43;36.08
64967;BME280;51710;38.732;-121.358;2023-04-22T02:27:37;101388.41;;;25.31;36.69
64967;BME280;51710;38.732;-121.358;2023-04-22T02:30:04;101393.41;;;25.22;36.63
64967;BME280;51710;38.732;-121.358;2023-04-22T02:32:31;101388.50;;;25.13;37.03
64967;BME280;51710;38.732;-121.358;2023-04-22T02:34:57;101387.00;;;25.05;36.92
64967;BME280;51710;38.732;-121.358;2023-04-22T02:37:23;101385.66;;;24.96;37.15
64967;BME280;51710;38.732;-121.358;2023-04-22T02:39:49;101385.19;;;24.88;36.72
64967;BME280;51710;38.732;-121.358;2023-04-22T02:42:15;101386.34;;;24.80;37.14
64967;BME280;51710;38.732;-121.358;2023-04-22T02:44:42;101385.88;;;24.72;37.60
64967;BME280;51710;38.732;-121.358;2023-04-22T02:47:08;101381.41;;;24.59;37.88
64967;BME280;51710;38.732;-121.358;2023-04-22T02:49:34;101385.75;;;24.48;38.30
64967;BME280;51710;38.732;-121.358;2023-04-22T02:52:00;101382.78;;;24.38;38.48
64967;BME280;51710;38.732;-121.358;2023-04-22T02:54:27;101393.41;;;24.28;38.71
64967;BME280;51710;38.732;-121.358;2023-04-22T02:56:54;101385.75;;;24.19;39.30
64967;BME280;51710;38.732;-121.358;2023-04-22T02:59:22;101389.03;;;24.09;39.46
64967;BME280;51710;38.732;-121.358;2023-04-22T03:01:48;101382.44;;;23.99;39.47
64967;BME280;51710;38.732;-121.358;2023-04-22T03:04:15;101387.00;;;23.87;39.90
64967;BME280;51710;38.732;-121.358;2023-04-22T03:06:41;101379.34;;;23.77;40.24
64967;BME280;51710;38.732;-121.358;2023-04-22T03:09:07;101381.31;;;23.70;39.96
64967;BME280;51710;38.732;-121.358;2023-04-22T03:11:34;101376.78;;;23.64;40.17
64967;BME280;51710;38.732;-121.358;2023-04-22T03:14:00;101371.19;;;23.59;40.28
64967;BME280;51710;38.732;-121.358;2023-04-22T03:16:26;101371.03;;;23.54;40.55
64967;BME280;51710;38.732;-121.358;2023-04-22T03:18:52;101372.19;;;23.47;40.71
64967;BME280;51710;38.732;-121.358;2023-04-22T03:21:18;101380.22;;;23.35;41.02
64967;BME280;51710;38.732;-121.358;2023-04-22T03:23:45;101370.28;;;23.22;41.12
64967;BME280;51710;38.732;-121.358;2023-04-22T03:26:11;101373.69;;;23.18;41.39
64967;BME280;51710;38.732;-121.358;2023-04-22T03:28:38;101379.81;;;23.13;41.24
64967;BME280;51710;38.732;-121.358;2023-04-22T03:31:05;101381.75;;;23.06;41.50
64967;BME280;51710;38.732;-121.358;2023-04-22T03:33:31;101370.97;;;22.93;41.33
64967;BME280;51710;38.732;-121.358;2023-04-22T03:35:57;101374.63;;;22.81;41.57
64967;BME280;51710;38.732;-121.358;2023-04-22T03:38:24;101377.00;;;22.71;41.95
64967;BME280;51710;38.732;-121.358;2023-04-22T03:40:50;101382.72;;;22.63;42.69
64967;BME280;51710;38.732;-121.358;2023-04-22T03:43:16;101377.13;;;22.51;43.03
64967;BME280;51710;38.732;-121.358;2023-04-22T03:45:43;101381.97;;;22.43;42.77
64967;BME280;51710;38.732;-121.358;2023-04-22T03:48:09;101386.84;;;22.34;42.53
64967;BME280;51710;38.732;-121.358;2023-04-22T03:50:35;101381.22;;;22.29;43.39
64967;BME280;51710;38.732;-121.358;2023-04-22T03:53:02;101386.09;;;22.20;43.71
64967;BME280;51710;38.732;-121.358;2023-04-22T03:55:28;101389.47;;;22.09;43.89
64967;BME280;51710;38.732;-121.358;2023-04-22T03:57:54;101385.75;;;21.97;44.23
64967;BME280;51710;38.732;-121.358;2023-04-22T04:00:20;101383.31;;;21.83;44.95
64967;BME280;51710;38.732;-121.358;2023-04-22T04:02:47;101385.22;;;21.69;44.75
64967;BME280;51710;38.732;-121.358;2023-04-22T04:05:13;101381.06;;;21.60;45.63
64967;BME280;51710;38.732;-121.358;2023-04-22T04:07:39;101383.19;;;21.58;44.66
64967;BME280;51710;38.732;-121.358;2023-04-22T04:10:06;101389.63;;;21.57;44.79
64967;BME280;51710;38.732;-121.358;2023-04-22T04:12:32;101382.56;;;21.56;44.12
64967;BME280;51710;38.732;-121.358;2023-04-22T04:14:59;101381.94;;;21.54;44.11
64967;BME280;51710;38.732;-121.358;2023-04-22T04:17:25;101387.34;;;21.54;44.67
64967;BME280;51710;38.732;-121.358;2023-04-22T04:19:54;101386.94;;;21.51;45.12
64967;BME280;51710;38.732;-121.358;2023-04-22T04:22:20;101383.41;;;21.44;44.66
64967;BME280;51710;38.732;-121.358;2023-04-22T04:24:47;101386.78;;;21.39;44.66
64967;BME280;51710;38.732;-121.358;2023-04-22T04:27:14;101383.44;;;21.37;44.73
64967;BME280;51710;38.732;-121.358;2023-04-22T04:29:40;101383.66;;;21.36;44.60
64967;BME280;51710;38.732;-121.358;2023-04-22T04:32:07;101386.97;;;21.31;44.90
64967;BME280;51710;38.732;-121.358;2023-04-22T04:34:34;101385.13;;;21.25;44.66
64967;BME280;51710;38.732;-121.358;2023-04-22T04:37:02;101388.66;;;21.19;44.73
64967;BME280;51710;38.732;-121.358;2023-04-22T04:39:28;101388.88;;;21.11;44.98
64967;BME280;51710;38.732;-121.358;2023-04-22T04:41:55;101388.06;;;21.04;45.12
64967;BME280;51710;38.732;-121.358;2023-04-22T04:44:23;101377.38;;;20.96;45.25
64967;BME280;51710;38.732;-121.358;2023-04-22T04:46:52;101374.47;;;20.91;45.48
64967;BME280;51710;38.732;-121.358;2023-04-22T04:49:19;101378.44;;;20.88;45.52
64967;BME280;51710;38.732;-121.358;2023-04-22T04:51:46;101376.34;;;20.84;45.74
64967;BME280;51710;38.732;-121.358;2023-04-22T04:54:12;101373.44;;;20.72;46.05
64967;BME280;51710;38.732;-121.358;2023-04-22T04:56:38;101380.72;;;20.65;45.86
64967;BME280;51710;38.732;-121.358;2023-04-22T04:59:05;101377.16;;;20.58;46.41
64967;BME280;51710;38.732;-121.358;2023-04-22T05:01:31;101380.06;;;20.50;45.99
64967;BME280;51710;38.732;-121.358;2023-04-22T05:03:57;101366.50;;;20.44;46.54
64967;BME280;51710;38.732;-121.358;2023-04-22T05:06:23;101373.41;;;20.40;46.58
64967;BME280;51710;38.732;-121.358;2023-04-22T05:08:49;101370.06;;;20.38;46.03
64967;BME280;51710;38.732;-121.358;2023-04-22T05:11:16;101370.06;;;20.38;46.24
64967;BME280;51710;38.732;-121.358;2023-04-22T05:13:42;101370.44;;;20.35;46.39
64967;BME280;51710;38.732;-121.358;2023-04-22T05:16:09;101367.53;;;20.30;46.29
64967;BME280;51710;38.732;-121.358;2023-04-22T05:18:35;101367.50;;;20.23;46.66
64967;BME280;51710;38.732;-121.358;2023-04-22T05:21:01;101357.25;;;20.12;46.76
64967;BME280;51710;38.732;-121.358;2023-04-22T05:23:29;101361.19;;;20.03;47.13
64967;BME280;51710;38.732;-121.358;2023-04-22T05:25:56;101362.41;;;19.94;47.15
64967;BME280;51710;38.732;-121.358;2023-04-22T05:28:22;101357.34;;;19.84;47.22
64967;BME280;51710;38.732;-121.358;2023-04-22T05:30:49;101360.25;;;19.76;47.15
64967;BME280;51710;38.732;-121.358;2023-04-22T05:33:15;101352.28;;;19.68;47.71
64967;BME280;51710;38.732;-121.358;2023-04-22T05:35:41;101354.53;;;19.58;47.66
64967;BME280;51710;38.732;-121.358;2023-04-22T05:38:07;101351.38;;;19.48;47.84
64967;BME280;51710;38.732;-121.358;2023-04-22T05:40:34;101350.69;;;19.40;47.96
64967;BME280;51710;38.732;-121.358;2023-04-22T05:43:00;101345.25;;;19.33;48.33
64967;BME280;51710;38.732;-121.358;2023-04-22T05:45:26;101343.72;;;19.24;48.64
64967;BME280;51710;38.732;-121.358;2023-04-22T05:47:52;101344.50;;;19.18;48.89
64967;BME280;51710;38.732;-121.358;2023-04-22T05:50:19;101344.03;;;19.08;49.42
64967;BME280;51710;38.732;-121.358;2023-04-22T05:52:45;101336.88;;;19.00;50.09
64967;BME280;51710;38.732;-121.358;2023-04-22T05:55:11;101334.78;;;18.96;49.93
64967;BME280;51710;38.732;-121.358;2023-04-22T05:57:37;101329.78;;;18.93;49.91
64967;BME280;51710;38.732;-121.358;2023-04-22T06:00:04;101335.56;;;18.90;50.09
64967;BME280;51710;38.732;-121.358;2023-04-22T06:02:31;101332.25;;;18.88;50.26
64967;BME280;51710;38.732;-121.358;2023-04-22T06:04:57;101324.31;;;18.86;50.08
64967;BME280;51710;38.732;-121.358;2023-04-22T06:07:23;101327.22;;;18.85;50.03
64967;BME280;51710;38.732;-121.358;2023-04-22T06:09:49;101325.38;;;18.85;50.17
64967;BME280;51710;38.732;-121.358;2023-04-22T06:12:16;101319.78;;;18.87;50.24
64967;BME280;51710;38.732;-121.358;2023-04-22T06:14:42;101318.13;;;18.86;50.20
64967;BME280;51710;38.732;-121.358;2023-04-22T06:17:08;101316.44;;;18.85;50.40
64967;BME280;51710;38.732;-121.358;2023-04-22T06:19:35;101306.03;;;18.82;50.42
64967;BME280;51710;38.732;-121.358;2023-04-22T06:22:01;101310.38;;;18.83;50.65
64967;BME280;51710;38.732;-121.358;2023-04-22T06:24:28;101305.19;;;18.81;51.13
64967;BME280;51710;38.732;-121.358;2023-04-22T06:26:54;101315.53;;;18.78;51.16
64967;BME280;51710;38.732;-121.358;2023-04-22T06:29:23;101310.53;;;18.75;51.20
64967;BME280;51710;38.732;-121.358;2023-04-22T06:31:49;101308.88;;;18.74;51.78
64967;BME280;51710;38.732;-121.358;2023-04-22T06:34:15;101313.84;;;18.70;51.75
64967;BME280;51710;38.732;-121.358;2023-04-22T06:36:43;101310.31;;;18.70;52.18
64967;BME280;51710;38.732;-121.358;2023-04-22T06:39:09;101315.06;;;18.68;51.93
64967;BME280;51710;38.732;-121.358;2023-04-22T06:41:35;101310.06;;;18.65;52.23
64967;BME280;51710;38.732;-121.358;2023-04-22T06:44:02;101310.25;;;18.63;52.08
64967;BME280;51710;38.732;-121.358;2023-04-22T06:46:28;101304.00;;;18.63;52.04
64967;BME280;51710;38.732;-121.358;2023-04-22T06:48:54;101307.75;;;18.62;52.03
64967;BME280;51710;38.732;-121.358;2023-04-22T06:51:20;101303.16;;;18.62;52.13
64967;BME280;51710;38.732;-121.358;2023-04-22T06:53:47;101299.22;;;18.58;52.25
64967;BME280;51710;38.732;-121.358;2023-04-22T06:56:13;101300.03;;;18.59;52.36
64967;BME280;51710;38.732;-121.358;2023-04-22T06:58:40;101297.34;;;18.59;52.20
64967;BME280;51710;38.732;-121.358;2023-04-22T07:01:06;101290.69;;;18.55;52.43
64967;BME280;51710;38.732;-121.358;2023-04-22T07:03:32;101295.44;;;18.53;52.55
64967;BME280;51710;38.732;-121.358;2023-04-22T07:05:59;101290.22;;;18.51;52.92
64967;BME280;51710;38.732;-121.358;2023-04-22T07:08:25;101289.38;;;18.51;52.55
64967;BME280;51710;38.732;-121.358;2023-04-22T07:10:51;101291.25;;;18.50;52.60
64967;BME280;51710;38.732;-121.358;2023-04-22T07:13:18;101298.31;;;18.51;52.77
64967;BME280;51710;38.732;-121.358;2023-04-22T07:15:44;101291.25;;;18.50;52.85
64967;BME280;51710;38.732;-121.358;2023-04-22T07:18:11;101292.47;;;18.48;53.07
64967;BME280;51710;38.732;-121.358;2023-04-22T07:20:37;101297.44;;;18.44;53.32
64967;BME280;51710;38.732;-121.358;2023-04-22T07:23:03;101288.22;;;18.39;53.37
64967;BME280;51710;38.732;-121.358;2023-04-22T07:25:30;101291.81;;;18.25;53.63
64967;BME280;51710;38.732;-121.358;2023-04-22T07:27:56;101286.28;;;18.12;53.94
64967;BME280;51710;38.732;-121.358;2023-04-22T07:30:22;101291.16;;;18.02;54.54
64967;BME280;51710;38.732;-121.358;2023-04-22T07:32:49;101292.03;;;17.87;54.58
64967;BME280;51710;38.732;-121.358;2023-04-22T07:35:15;101278.44;;;17.74;54.91
64967;BME280;51710;38.732;-121.358;2023-04-22T07:37:41;101282.91;;;17.67;55.45
64967;BME280;51710;38.732;-121.358;2023-04-22T07:40:08;101281.41;;;17.65;55.27
64967;BME280;51710;38.732;-121.358;2023-04-22T07:42:38;101275.56;;;17.61;55.77
64967;BME280;51710;38.732;-121.358;2023-04-22T07:45:05;101281.94;;;17.54;55.73
64967;BME280;51710;38.732;-121.358;2023-04-22T07:47:31;101273.81;;;17.39;57.38
64967;BME280;51710;38.732;-121.358;2023-04-22T07:49:57;101268.19;;;17.20;58.65
64967;BME280;51710;38.732;-121.358;2023-04-22T07:52:24;101269.94;;;16.98;59.20
64967;BME280;51710;38.732;-121.358;2023-04-22T07:54:50;101263.44;;;16.78;59.52
64967;BME280;51710;38.732;-121.358;2023-04-22T07:57:16;101267.59;;;16.66;60.09
64967;BME280;51710;38.732;-121.358;2023-04-22T07:59:46;101251.56;;;16.58;60.41
64967;BME280;51710;38.732;-121.358;2023-04-22T08:02:12;101258.13;;;16.55;60.28
64967;BME280;51710;38.732;-121.358;2023-04-22T08:04:38;101249.38;;;16.53;60.07
64967;BME280;51710;38.732;-121.358;2023-04-22T08:07:05;101251.56;;;16.58;60.17
64967;BME280;51710;38.732;-121.358;2023-04-22T08:09:31;101250.81;;;16.64;59.98
64967;BME280;51710;38.732;-121.358;2023-04-22T08:11:58;101252.31;;;16.66;59.71
64967;BME280;51710;38.732;-121.358;2023-04-22T08:14:24;101252.88;;;16.76;59.41
64967;BME280;51710;38.732;-121.358;2023-04-22T08:16:51;101249.88;;;16.86;59.12
64967;BME280;51710;38.732;-121.358;2023-04-22T08:19:18;101245.44;;;16.93;59.03
64967;BME280;51710;38.732;-121.358;2023-04-22T08:21:45;101249.44;;;16.97;59.39
64967;BME280;51710;38.732;-121.358;2023-04-22T08:24:13;101240.97;;;17.00;58.75
64967;BME280;51710;38.732;-121.358;2023-04-22T08:26:39;101240.25;;;17.06;58.49
64967;BME280;51710;38.732;-121.358;2023-04-22T08:29:06;101238.88;;;17.10;58.48
64967;BME280;51710;38.732;-121.358;2023-04-22T08:31:33;101238.28;;;17.15;58.21
64967;BME280;51710;38.732;-121.358;2023-04-22T08:33:59;101247.69;;;17.19;57.61
64967;BME280;51710;38.732;-121.358;2023-04-22T08:36:26;101240.78;;;17.16;57.88
64967;BME280;51710;38.732;-121.358;2023-04-22T08:38:53;101247.22;;;17.15;57.80
64967;BME280;51710;38.732;-121.358;2023-04-22T08:41:22;101235.13;;;17.11;57.73
64967;BME280;51710;38.732;-121.358;2023-04-22T08:43:55;101241.09;;;17.07;57.89
64967;BME280;51710;38.732;-121.358;2023-04-22T08:46:21;101230.88;;;17.02;57.65
64967;BME280;51710;38.732;-121.358;2023-04-22T08:48:51;101241.16;;;16.99;57.93
64967;BME280;51710;38.732;-121.358;2023-04-22T08:51:19;101238.22;;;16.94;58.07
64967;BME280;51710;38.732;-121.358;2023-04-22T08:53:46;101231.34;;;16.91;58.71
64967;BME280;51710;38.732;-121.358;2023-04-22T08:56:13;101233.88;;;16.93;58.28
64967;BME280;51710;38.732;-121.358;2023-04-22T08:58:42;101235.72;;;16.92;58.21
64967;BME280;51710;38.732;-121.358;2023-04-22T09:01:09;101232.09;;;16.85;58.39
64967;BME280;51710;38.732;-121.358;2023-04-22T09:03:35;101223.94;;;16.78;58.42
64967;BME280;51710;38.732;-121.358;2023-04-22T09:06:04;101226.50;;;16.72;58.81
64967;BME280;51710;38.732;-121.358;2023-04-22T09:08:33;101222.53;;;16.68;58.62
64967;BME280;51710;38.732;-121.358;2023-04-22T09:11:01;101221.88;;;16.66;58.92
64967;BME280;51710;38.732;-121.358;2023-04-22T09:13:27;101217.88;;;16.62;59.68
64967;BME280;51710;38.732;-121.358;2023-04-22T09:15:54;101218.34;;;16.51;60.12
64967;BME280;51710;38.732;-121.358;2023-04-22T09:18:20;101210.03;;;16.38;60.39
64967;BME280;51710;38.732;-121.358;2023-04-22T09:20:47;101207.94;;;16.25;60.91
64967;BME280;51710;38.732;-121.358;2023-04-22T09:23:14;101207.19;;;16.17;60.67
64967;BME280;51710;38.732;-121.358;2023-04-22T09:25:41;101210.63;;;16.11;60.86
64967;BME280;51710;38.732;-121.358;2023-04-22T09:28:11;101203.56;;;16.10;60.94
64967;BME280;51710;38.732;-121.358;2023-04-22T09:30:37;101201.91;;;16.09;60.98
64967;BME280;51710;38.732;-121.358;2023-04-22T09:33:05;101201.91;;;16.09;60.96
64967;BME280;51710;38.732;-121.358;2023-04-22T09:35:38;101198.19;;;16.10;61.08
64967;BME280;51710;38.732;-121.358;2023-04-22T09:38:09;101200.22;;;16.08;61.21
64967;BME280;51710;38.732;-121.358;2023-04-22T09:40:39;101193.56;;;16.04;61.75
64967;BME280;51710;38.732;-121.358;2023-04-22T09:43:07;101194.34;;;15.90;62.34
64967;BME280;51710;38.732;-121.358;2023-04-22T09:45:35;101194.56;;;15.80;62.99
64967;BME280;51710;38.732;-121.358;2023-04-22T09:48:16;101193.13;;;15.69;63.08
64967;BME280;51710;38.732;-121.358;2023-04-22T09:50:48;101194.53;;;15.65;63.50
64967;BME280;51710;38.732;-121.358;2023-04-22T09:53:18;101191.50;;;15.60;63.58
64967;BME280;51710;38.732;-121.358;2023-04-22T09:55:46;101190.69;;;15.60;63.16
64967;BME280;51710;38.732;-121.358;2023-04-22T09:58:16;101186.50;;;15.57;63.08
64967;BME280;51710;38.732;-121.358;2023-04-22T10:00:47;101188.81;;;15.60;62.98
64967;BME280;51710;38.732;-121.358;2023-04-22T10:03:16;101184.13;;;15.62;63.01
64967;BME280;51710;38.732;-121.358;2023-04-22T10:05:42;101184.13;;;15.62;63.07
64967;BME280;51710;38.732;-121.358;2023-04-22T10:08:11;101170.41;;;15.57;63.40
64967;BME280;51710;38.732;-121.358;2023-04-22T10:10:38;101165.09;;;15.49;63.60
64967;BME280;51710;38.732;-121.358;2023-04-22T10:13:06;101168.47;;;15.43;63.77
64967;BME280;51710;38.732;-121.358;2023-04-22T10:15:35;101169.84;;;15.39;63.84
64967;BME280;51710;38.732;-121.358;2023-04-22T10:18:06;101164.13;;;15.34;63.75
64967;BME280;51710;38.732;-121.358;2023-04-22T10:20:36;101171.56;;;15.32;63.88
64967;BME280;51710;38.732;-121.358;2023-04-22T10:23:04;101163.03;;;15.29;64.05
64967;BME280;51710;38.732;-121.358;2023-04-22T10:25:31;101163.53;;;15.24;64.31
64967;BME280;51710;38.732;-121.358;2023-04-22T10:28:05;101167.94;;;15.17;64.50
64967;BME280;51710;38.732;-121.358;2023-04-22T10:30:36;101163.75;;;15.15;64.43
64967;BME280;51710;38.732;-121.358;2023-04-22T10:36:16;101155.06;;;15.13;64.45
64967;BME280;51710;38.732;-121.358;2023-04-22T10:41:15;101162.56;;;15.17;65.07
64967;BME280;51710;38.732;-121.358;2023-04-22T10:43:54;101161.56;;;15.18;65.43
64967;BME280;51710;38.732;-121.358;2023-04-22T10:49:10;101161.22;;;15.13;65.49
64967;BME280;51710;38.732;-121.358;2023-04-22T10:51:40;101157.91;;;15.11;65.73
64967;BME280;51710;38.732;-121.358;2023-04-22T10:57:04;101163.28;;;15.11;65.52
64967;BME280;51710;38.732;-121.358;2023-04-22T10:59:32;101163.59;;;15.16;65.49
64967;BME280;51710;38.732;-121.358;2023-04-22T11:02:02;101165.25;;;15.17;65.36
64967;BME280;51710;38.732;-121.358;2023-04-22T11:04:31;101166.56;;;15.21;65.40
64967;BME280;51710;38.732;-121.358;2023-04-22T11:10:07;101155.28;;;15.26;65.31
64967;BME280;51710;38.732;-121.358;2023-04-22T11:15:10;101153.16;;;15.21;65.57
64967;BME280;51710;38.732;-121.358;2023-04-22T11:17:38;101159.88;;;15.17;65.23
64967;BME280;51710;38.732;-121.358;2023-04-22T11:20:06;101153.53;;;15.18;65.61
64967;BME280;51710;38.732;-121.358;2023-04-22T11:22:38;101155.00;;;15.21;65.27
64967;BME280;51710;38.732;-121.358;2023-04-22T11:25:05;101147.25;;;15.26;65.17
64967;BME280;51710;38.732;-121.358;2023-04-22T11:27:31;101145.78;;;15.23;64.93
64967;BME280;51710;38.732;-121.358;2023-04-22T11:30:10;101145.78;;;15.23;65.07
64967;BME280;51710;38.732;-121.358;2023-04-22T11:32:48;101144.56;;;15.26;64.88
64967;BME280;51710;38.732;-121.358;2023-04-22T11:35:18;101139.84;;;15.28;65.07
64967;BME280;51710;38.732;-121.358;2023-04-22T11:37:52;101140.03;;;15.26;64.91
64967;BME280;51710;38.732;-121.358;2023-04-22T11:40:28;101136.56;;;15.18;65.28
64967;BME280;51710;38.732;-121.358;2023-04-22T11:42:56;101136.16;;;15.06;65.31
64967;BME280;51710;38.732;-121.358;2023-04-22T11:45:23;101127.47;;;14.96;65.94
64967;BME280;51710;38.732;-121.358;2023-04-22T11:47:50;101130.69;;;14.84;66.01
64967;BME280;51710;38.732;-121.358;2023-04-22T11:50:20;101132.44;;;14.77;66.22
64967;BME280;51710;38.732;-121.358;2023-04-22T11:53:00;101135.28;;;14.75;66.29
64967;BME280;51710;38.732;-121.358;2023-04-22T11:55:28;101134.09;;;14.78;66.28
64967;BME280;51710;38.732;-121.358;2023-04-22T12:00:31;101133.59;;;14.74;66.52
64967;BME280;51710;38.732;-121.358;2023-04-22T12:03:14;101129.91;;;14.75;66.44
64967;BME280;51710;38.732;-121.358;2023-04-22T12:05:44;101130.25;;;14.72;66.44
64967;BME280;51710;38.732;-121.358;2023-04-22T12:08:18;101129.28;;;14.65;66.69
64967;BME280;51710;38.732;-121.358;2023-04-22T12:10:50;101128.97;;;14.60;66.99
64967;BME280;51710;38.732;-121.358;2023-04-22T12:13:29;101128.31;;;14.58;67.03
64967;BME280;51710;38.732;-121.358;2023-04-22T12:16:03;101121.59;;;14.54;66.84
64967;BME280;51710;38.732;-121.358;2023-04-22T12:18:38;101124.50;;;14.44;66.83
64967;BME280;51710;38.732;-121.358;2023-04-22T12:21:13;101137.25;;;14.34;67.09
64967;BME280;51710;38.732;-121.358;2023-04-22T12:23:44;101133.44;;;14.29;67.31
64967;BME280;51710;38.732;-121.358;2023-04-22T12:26:11;101124.38;;;14.22;67.45
64967;BME280;51710;38.732;-121.358;2023-04-22T12:28:38;101124.03;;;14.17;67.46
64967;BME280;51710;38.732;-121.358;2023-04-22T12:31:05;101119.34;;;14.11;67.61
64967;BME280;51710;38.732;-121.358;2023-04-22T12:33:32;101114.00;;;14.11;67.77
64967;BME280;51710;38.732;-121.358;2023-04-22T12:35:58;101106.81;;;14.11;67.62
64967;BME280;51710;38.732;-121.358;2023-04-22T12:38:25;101114.00;;;14.11;67.56
64967;BME280;51710;38.732;-121.358;2023-04-22T12:40:51;101108.81;;;14.09;67.73